Airfield :







YOU CAN JOIN US ON...

 
LOGIN :

Register | Disclaimer

   EN    FR    IT 

 









Legend :    VFR   Marginal VFR   IFR   Intensive IFR   Very Intensive IFR
Visi :
Ceiling :
>= 8 km
>= 3000ft
5 to 8 km
1000 to 3000 ft
1500m to 5 km
500 to 1000 ft
800 to 1500m
200 to 500 ft
< 800m
< 200 ft
Symbols :   Thunderstorms  Fog  Heavy snow  Heavy precipitations  Wind > 20 kt






- Airport Elevation : 199 ft
- IATA code : YRQ


CYRQ - Trois-Rivières

CURRENT METAR :
  • 191647Z AUTO 31013G23KT 270V340 7SM CLR M05/M16 A3008 RMK SLP189

EXPIRED METARs :
  • 191637Z AUTO 32015G22KT 260V350 7SM -SN CLR M05/M16 A3007 RMK SLP188
  • 191600Z AUTO 31013G21KT 280V340 9SM CLR M05/M15 A3006 RMK SLP184
  • 191536Z AUTO 31012G24KT 280V340 9SM FEW030 BKN037 M05/M13 A3004 RMK PRESRR SLP178
  • 191515Z AUTO 32009G18KT 270V360 9SM -SN OVC033 M04/M11 A3002 RMK SLP171
  • 191512Z AUTO 31008G18KT 270V350 9SM SCT030 OVC037 M04/M10 A3002 RMK SLP170
  • 191400Z AUTO 28007KT 240V310 9SM OVC085 M04/M11 A2999 RMK SLP160

TAF TAF CYRQ
Valid from the 19 at 14:00 until the 20 at 02:00 UTC


191338Z 1914/2002 VRB03KT P6SM SCT020 BKN090
TEMPO 1914/1918 VRB12G22KT 2SM -SHSN BKN020
PROB30 1914/1918 1SM -SHSN VV008
FM191800 28015G25KT P6SM BKN030
TEMPO 1918/1921 2SM -SHSN BKN020
FM192100 27015G25KT P6SM BKN030
TEMPO 1921/2002 SCT030
BECMG 1921/1923 28010KT RMK FCST BASED ON AUTO OBS. NXT FCST BY 192000Z



MET'MAP, your aeronautical weather chart ! - Copyright ORBIFLY December 2007 - Disclaimer

ORBIFLY MET'MAP TEAM :

Programming & Development : Alexandra Zaïnal
Concept & original design : Baudouin d'Aumeries
Assistance for programming : Marc-Olivier Méhu
Technical & hardware support : Manuel Goepfert

Contact : metmap@orbifly.com




SOURCES & CREDITS :

   NOAA